createdAt,value
2018-03-02T00:02:21.372Z,-1.66
2018-03-02T00:04:50.698Z,-1.48
2018-03-02T00:07:19.964Z,-1.10
2018-03-02T00:09:49.335Z,-1.23
2018-03-02T00:12:18.773Z,-1.33
2018-03-02T00:14:48.238Z,-1.49
2018-03-02T00:17:17.269Z,-1.41
2018-03-02T00:19:46.625Z,-1.38
2018-03-02T00:22:16.108Z,-1.41
2018-03-02T00:24:45.541Z,-1.52
2018-03-02T00:27:14.714Z,-1.51
2018-03-02T00:29:44.291Z,-1.35
2018-03-02T00:32:13.474Z,-1.37
2018-03-02T00:34:42.927Z,-1.27
2018-03-02T00:37:12.758Z,-1.33
2018-03-02T00:39:42.305Z,-1.39
2018-03-02T00:42:11.473Z,-1.49
2018-03-02T00:44:41.219Z,-1.47
2018-03-02T00:47:10.310Z,-1.61
2018-03-02T00:49:39.813Z,-1.60
2018-03-02T00:52:09.245Z,-1.48
2018-03-02T00:54:38.471Z,-1.52
2018-03-02T00:57:08.062Z,-1.57
2018-03-02T00:59:37.431Z,-1.47
2018-03-02T01:02:07.033Z,-1.56
2018-03-02T01:04:36.329Z,-1.58
2018-03-02T01:07:05.533Z,-1.74
2018-03-02T01:09:35.218Z,-1.76
2018-03-02T01:12:04.729Z,-1.79
2018-03-02T01:14:34.051Z,-1.64
2018-03-02T01:17:03.262Z,-1.48
2018-03-02T01:19:32.537Z,-1.56
2018-03-02T01:22:02.159Z,-1.49
2018-03-02T01:24:32.174Z,-1.41
2018-03-02T01:27:01.706Z,-1.57
2018-03-02T01:29:30.889Z,-1.58
2018-03-02T01:32:00.178Z,-1.66
2018-03-02T01:34:29.595Z,-1.70
2018-03-02T01:36:59.438Z,-1.75
2018-03-02T01:39:28.618Z,-1.66
2018-03-02T01:41:58.085Z,-1.70
2018-03-02T01:44:27.570Z,-1.71
2018-03-02T01:46:57.053Z,-1.71
2018-03-02T01:49:26.806Z,-1.76
2018-03-02T01:51:55.902Z,-1.76
2018-03-02T01:54:25.081Z,-1.78
2018-03-02T01:56:54.321Z,-1.70
2018-03-02T01:59:23.708Z,-1.78
2018-03-02T02:01:52.801Z,-1.84
2018-03-02T02:04:22.215Z,-1.72
2018-03-02T02:06:51.542Z,-1.74
2018-03-02T02:09:20.706Z,-1.70
2018-03-02T02:11:50.113Z,-1.73
2018-03-02T02:14:19.511Z,-1.76
2018-03-02T02:16:48.718Z,-1.83
2018-03-02T02:19:17.797Z,-1.84
2018-03-02T02:21:47.310Z,-1.85
2018-03-02T02:24:16.453Z,-1.77
2018-03-02T02:26:45.697Z,-1.78
2018-03-02T02:29:14.997Z,-1.73
2018-03-02T02:31:44.619Z,-1.91
2018-03-02T02:34:13.979Z,-1.77
2018-03-02T02:36:43.314Z,-1.86
2018-03-02T02:39:12.994Z,-1.90
2018-03-02T02:41:42.221Z,-1.82
2018-03-02T02:44:11.474Z,-1.86
2018-03-02T02:46:40.898Z,-1.79
2018-03-02T02:49:10.057Z,-1.64
2018-03-02T02:51:39.644Z,-1.75
2018-03-02T02:54:08.907Z,-1.61
2018-03-02T02:56:38.117Z,-1.68
2018-03-02T02:59:07.525Z,-1.74
2018-03-02T03:01:36.720Z,-1.73
2018-03-02T03:04:06.141Z,-1.75
2018-03-02T03:06:35.425Z,-1.61
2018-03-02T03:09:04.893Z,-1.69
2018-03-02T03:11:34.139Z,-1.86
2018-03-02T03:14:03.769Z,-1.92
2018-03-02T03:16:33.177Z,-1.98
2018-03-02T03:19:02.397Z,-1.92
2018-03-02T03:21:31.941Z,-1.91
2018-03-02T03:24:01.244Z,-1.93
2018-03-02T03:26:31.059Z,-1.99
2018-03-02T03:29:00.455Z,-1.95
2018-03-02T03:31:29.962Z,-1.75
2018-03-02T03:33:59.509Z,-1.94
2018-03-02T03:36:28.787Z,-1.92
2018-03-02T03:38:58.169Z,-2.02
2018-03-02T03:41:27.483Z,-2.02
2018-03-02T03:43:57.284Z,-1.98
2018-03-02T03:46:26.449Z,-1.85
2018-03-02T03:48:55.777Z,-1.87
2018-03-02T03:51:25.089Z,-1.90
2018-03-02T03:53:54.382Z,-1.80
2018-03-02T03:56:23.799Z,-1.87
2018-03-02T03:58:53.439Z,-1.72
2018-03-02T04:01:22.893Z,-1.98
2018-03-02T04:03:52.305Z,-1.92
2018-03-02T04:06:21.534Z,-1.93
2018-03-02T04:08:50.904Z,-1.77
2018-03-02T04:11:20.174Z,-1.78
2018-03-02T04:13:49.411Z,-1.81
2018-03-02T04:16:18.611Z,-1.84
2018-03-02T04:18:47.922Z,-1.84
2018-03-02T04:21:18.625Z,-1.84
2018-03-02T04:23:48.073Z,-1.83
2018-03-02T04:26:17.532Z,-1.85
2018-03-02T04:28:46.947Z,-1.79
2018-03-02T04:31:16.434Z,-1.78
2018-03-02T04:33:45.611Z,-1.82
2018-03-02T04:36:15.041Z,-1.75
2018-03-02T04:38:44.649Z,-1.52
2018-03-02T04:41:13.807Z,-1.54
2018-03-02T04:43:43.046Z,-1.59
2018-03-02T04:46:12.185Z,-1.49
2018-03-02T04:48:41.455Z,-1.59
2018-03-02T04:51:10.465Z,-1.49
2018-03-02T04:53:39.837Z,-1.52
2018-03-02T04:56:09.292Z,-1.50
2018-03-02T04:58:38.710Z,-1.48
2018-03-02T05:01:07.945Z,-1.46
2018-03-02T05:03:37.469Z,-1.45
2018-03-02T05:06:07.053Z,-1.39
2018-03-02T05:08:36.457Z,-1.32
2018-03-02T05:11:05.801Z,-1.35
2018-03-02T05:13:35.121Z,-1.29
2018-03-02T05:16:04.249Z,-1.30
2018-03-02T05:18:33.441Z,-1.22
2018-03-02T05:21:02.977Z,-1.25
2018-03-02T05:23:32.257Z,-1.29
2018-03-02T05:26:01.662Z,-1.19
2018-03-02T05:28:30.864Z,-1.17
2018-03-02T05:31:00.275Z,-1.23
2018-03-02T05:33:29.577Z,-1.17
2018-03-02T05:35:58.774Z,-1.22
2018-03-02T05:38:28.005Z,-1.24
2018-03-02T05:40:57.277Z,-1.27
2018-03-02T05:43:26.731Z,-1.03
2018-03-02T05:45:56.158Z,-0.97
2018-03-02T05:48:25.882Z,-0.85
2018-03-02T05:50:55.017Z,-0.87
2018-03-02T05:53:24.381Z,-0.81
2018-03-02T05:55:53.991Z,-0.78
2018-03-02T05:58:23.161Z,-0.76
2018-03-02T06:00:52.309Z,-0.68
2018-03-02T06:03:21.570Z,-0.62
2018-03-02T06:05:50.881Z,-0.60
2018-03-02T06:08:20.517Z,-0.58
2018-03-02T06:10:49.797Z,-0.64
2018-03-02T06:13:19.159Z,-0.67
2018-03-02T06:15:48.322Z,-0.65
2018-03-02T06:18:17.689Z,-0.69
2018-03-02T06:20:47.044Z,-0.59
2018-03-02T06:23:16.325Z,-0.47
2018-03-02T06:25:45.381Z,-0.43
2018-03-02T06:28:14.353Z,-0.34
2018-03-02T06:30:43.498Z,-0.40
2018-03-02T06:33:12.850Z,-0.41
2018-03-02T06:35:42.029Z,-0.36
2018-03-02T06:38:11.430Z,-0.29
2018-03-02T06:40:40.611Z,-0.24
2018-03-02T06:43:09.874Z,-0.39
2018-03-02T06:45:39.274Z,-0.23
2018-03-02T06:48:08.688Z,0.89
2018-03-02T06:50:37.870Z,1.46
2018-03-02T06:53:06.853Z,1.47
2018-03-02T06:55:36.016Z,1.47
2018-03-02T06:58:05.814Z,0.63
2018-03-02T07:00:35.163Z,0.06
2018-03-02T07:03:04.241Z,0.00
2018-03-02T07:05:33.582Z,-0.08
2018-03-02T07:08:02.846Z,-0.01
2018-03-02T07:10:31.923Z,-0.07
2018-03-02T07:13:01.255Z,0.00
2018-03-02T07:15:30.669Z,0.16
2018-03-02T07:17:59.974Z,-0.04
2018-03-02T07:20:29.213Z,0.09
2018-03-02T07:22:58.301Z,0.04
2018-03-02T07:25:27.283Z,0.27
2018-03-02T07:27:56.493Z,0.17
2018-03-02T07:30:25.875Z,-0.06
2018-03-02T07:32:55.007Z,0.22
2018-03-02T07:35:24.166Z,0.11
2018-03-02T07:37:53.512Z,0.23
2018-03-02T07:40:22.774Z,0.62
2018-03-02T07:42:51.894Z,0.71
2018-03-02T07:45:21.155Z,0.79
2018-03-02T07:47:50.478Z,0.88
2018-03-02T07:50:19.741Z,0.70
2018-03-02T07:52:48.839Z,0.71
2018-03-02T07:55:18.426Z,0.82
2018-03-02T07:57:47.669Z,0.76
2018-03-02T08:00:16.972Z,0.84
2018-03-02T08:02:46.462Z,0.80
2018-03-02T08:05:15.986Z,0.76
2018-03-02T08:07:45.499Z,1.03
2018-03-02T08:10:14.855Z,0.99
2018-03-02T08:12:44.197Z,0.92
2018-03-02T08:15:13.290Z,1.76
2018-03-02T08:17:42.560Z,1.44
2018-03-02T08:20:12.291Z,1.18
2018-03-02T08:22:41.402Z,1.53
2018-03-02T08:25:10.434Z,1.42
2018-03-02T08:27:39.669Z,1.82
2018-03-02T08:30:09.138Z,1.79
2018-03-02T08:32:38.441Z,1.71
2018-03-02T08:35:07.481Z,2.25
2018-03-02T08:37:36.414Z,2.09
2018-03-02T08:40:05.673Z,1.93
2018-03-02T08:42:35.042Z,2.13
2018-03-02T08:45:04.334Z,2.42
2018-03-02T08:47:33.477Z,2.29
2018-03-02T08:50:02.721Z,2.17
2018-03-02T08:52:32.048Z,2.76
2018-03-02T08:55:01.371Z,2.66
2018-03-02T08:57:30.477Z,2.94
2018-03-02T08:59:59.893Z,2.89
2018-03-02T09:02:28.867Z,2.80
2018-03-02T09:04:57.954Z,3.58
2018-03-02T09:07:27.200Z,2.98
2018-03-02T09:09:56.337Z,2.82
2018-03-02T09:12:25.581Z,2.62
2018-03-02T09:14:55.082Z,2.61
2018-03-02T09:17:24.317Z,2.49
2018-03-02T09:19:53.705Z,2.52
2018-03-02T09:22:23.065Z,2.28
2018-03-02T09:24:52.345Z,2.19
2018-03-02T09:27:21.823Z,2.08
2018-03-02T09:29:50.985Z,2.49
2018-03-02T09:32:20.001Z,2.33
2018-03-02T09:34:49.365Z,2.31
2018-03-02T09:37:18.670Z,2.53
2018-03-02T09:39:47.894Z,2.21
2018-03-02T09:42:17.167Z,2.34
2018-03-02T09:44:46.383Z,2.19
2018-03-02T09:47:15.581Z,2.20
2018-03-02T09:49:44.707Z,1.99
2018-03-02T09:52:14.098Z,2.35
2018-03-02T09:54:43.605Z,2.40
2018-03-02T09:57:12.846Z,2.29
2018-03-02T09:59:42.293Z,2.11
2018-03-02T10:02:11.554Z,2.13
2018-03-02T10:04:40.819Z,2.50
2018-03-02T10:07:10.217Z,2.15
2018-03-02T10:09:39.143Z,2.15
2018-03-02T10:12:08.810Z,2.44
2018-03-02T10:14:38.009Z,2.29
2018-03-02T10:17:07.165Z,2.19
2018-03-02T10:19:36.478Z,2.11
2018-03-02T10:22:05.642Z,2.31
2018-03-02T10:24:35.045Z,2.47
2018-03-02T10:27:04.513Z,2.77
2018-03-02T10:29:33.765Z,2.49
2018-03-02T10:32:03.138Z,2.55
2018-03-02T10:34:32.223Z,2.87
2018-03-02T10:37:01.767Z,2.79
2018-03-02T10:39:30.994Z,2.82
2018-03-02T10:42:00.267Z,2.92
2018-03-02T10:44:29.915Z,2.88
2018-03-02T10:46:59.262Z,2.83
2018-03-02T10:49:28.679Z,2.89
2018-03-02T10:51:58.170Z,2.92
2018-03-02T10:54:27.793Z,3.20
2018-03-02T10:56:57.233Z,3.24
2018-03-02T10:59:26.844Z,3.17
2018-03-02T11:01:56.037Z,2.94
2018-03-02T11:04:30.974Z,2.75
2018-03-02T11:07:00.331Z,2.65
2018-03-02T11:09:29.668Z,2.85
2018-03-02T11:11:58.868Z,2.84
2018-03-02T11:14:28.030Z,2.84
2018-03-02T11:16:57.436Z,2.98
2018-03-02T11:19:26.680Z,2.79
2018-03-02T11:21:56.171Z,3.02
2018-03-02T11:24:25.260Z,2.93
2018-03-02T11:26:54.622Z,2.91
2018-03-02T11:29:23.971Z,2.97
2018-03-02T11:31:53.417Z,2.87
2018-03-02T11:34:22.398Z,2.87
2018-03-02T11:36:51.717Z,3.00
2018-03-02T11:39:20.951Z,2.88
2018-03-02T11:41:49.941Z,2.77
2018-03-02T11:44:19.113Z,2.86
2018-03-02T11:46:48.369Z,2.92
2018-03-02T11:49:17.527Z,2.91
2018-03-02T11:51:46.953Z,2.91
2018-03-02T11:54:16.175Z,2.72
2018-03-02T11:56:45.269Z,2.75
2018-03-02T11:59:14.442Z,2.93
2018-03-02T12:01:43.837Z,2.90
2018-03-02T12:04:13.343Z,2.84
2018-03-02T12:06:42.713Z,2.94
2018-03-02T12:09:12.028Z,3.06
2018-03-02T12:11:41.371Z,3.32
2018-03-02T12:14:10.721Z,3.33
2018-03-02T12:16:40.017Z,3.14
2018-03-02T12:19:09.483Z,3.15
2018-03-02T12:21:38.993Z,3.26
2018-03-02T12:24:08.201Z,3.23
2018-03-02T12:26:37.931Z,3.17
2018-03-02T12:29:07.285Z,3.12
2018-03-02T12:31:36.701Z,3.00
2018-03-02T12:34:06.145Z,2.95
2018-03-02T12:36:35.359Z,3.00
2018-03-02T12:39:05.470Z,2.95
2018-03-02T12:41:34.702Z,3.01
2018-03-02T12:44:04.234Z,3.17
2018-03-02T12:46:33.408Z,3.66
2018-03-02T12:49:02.773Z,3.34
2018-03-02T12:51:32.039Z,3.22
2018-03-02T12:54:01.528Z,3.15
2018-03-02T12:56:30.709Z,2.93
2018-03-02T12:59:00.132Z,2.95
2018-03-02T13:01:29.685Z,2.85
2018-03-02T13:03:58.917Z,3.33
2018-03-02T13:06:28.185Z,3.01
2018-03-02T13:08:57.373Z,2.94
2018-03-02T13:11:26.746Z,2.86
2018-03-02T13:13:55.994Z,2.81
2018-03-02T13:16:25.220Z,2.71
2018-03-02T13:18:54.275Z,2.60
2018-03-02T13:21:23.911Z,2.41
2018-03-02T13:23:53.099Z,2.33
2018-03-02T13:26:33.690Z,2.37
2018-03-02T13:29:02.595Z,2.30
2018-03-02T13:31:31.948Z,2.30
2018-03-02T13:34:12.351Z,2.35
2018-03-02T13:36:41.105Z,2.38
2018-03-02T13:39:10.390Z,2.32
2018-03-02T13:41:51.086Z,2.47
2018-03-02T13:44:20.049Z,2.63
2018-03-02T13:46:49.629Z,2.67
2018-03-02T13:49:30.205Z,2.60
2018-03-02T13:51:59.368Z,2.62
2018-03-02T13:54:28.580Z,2.56
2018-03-02T13:57:09.126Z,2.57
2018-03-02T13:59:38.179Z,2.61
2018-03-02T14:02:07.379Z,2.68
2018-03-02T14:04:45.366Z,2.63
2018-03-02T14:07:14.700Z,2.63
2018-03-02T14:09:43.770Z,2.82
2018-03-02T14:12:13.088Z,2.82
2018-03-02T14:14:42.265Z,2.84
2018-03-02T14:17:11.655Z,2.86
2018-03-02T14:19:41.132Z,2.88
2018-03-02T14:22:10.434Z,2.92
2018-03-02T14:24:39.921Z,2.77
2018-03-02T14:27:08.997Z,2.73
2018-03-02T14:29:38.345Z,2.78
2018-03-02T14:32:07.965Z,2.89
2018-03-02T14:34:37.406Z,2.96
2018-03-02T14:37:06.725Z,3.11
2018-03-02T14:39:35.990Z,3.09
2018-03-02T14:42:05.094Z,3.02
2018-03-02T14:44:34.215Z,2.97
2018-03-02T14:47:03.869Z,2.90
2018-03-02T14:49:33.296Z,3.07
2018-03-02T14:52:02.743Z,3.35
2018-03-02T14:54:31.894Z,3.33
2018-03-02T14:57:01.281Z,3.13
2018-03-02T14:59:31.066Z,3.70
2018-03-02T15:02:00.274Z,3.45
2018-03-02T15:04:29.838Z,3.56
2018-03-02T15:06:59.362Z,3.55
2018-03-02T15:09:28.845Z,3.55
2018-03-02T15:11:58.111Z,3.24
2018-03-02T15:14:27.426Z,3.08
2018-03-02T15:16:56.879Z,3.10
2018-03-02T15:19:26.130Z,3.04
2018-03-02T15:21:55.502Z,2.99
2018-03-02T15:24:24.851Z,2.88
2018-03-02T15:26:54.247Z,2.94
2018-03-02T15:29:23.493Z,2.85
2018-03-02T15:31:52.847Z,2.84
2018-03-02T15:34:22.418Z,3.14
2018-03-02T15:36:51.779Z,3.23
2018-03-02T15:39:21.408Z,2.83
2018-03-02T15:41:50.811Z,2.75
2018-03-02T15:44:20.365Z,2.92
2018-03-02T15:46:50.133Z,3.07
2018-03-02T15:49:19.513Z,3.15
2018-03-02T15:51:49.057Z,3.22
2018-03-02T15:54:18.362Z,3.32
2018-03-02T15:56:48.038Z,2.98
2018-03-02T15:59:17.502Z,2.78
2018-03-02T16:01:46.993Z,2.97
2018-03-02T16:04:16.276Z,3.19
2018-03-02T16:06:45.474Z,3.06
2018-03-02T16:09:14.495Z,2.74
2018-03-02T16:11:43.630Z,2.64
2018-03-02T16:14:12.907Z,2.64
2018-03-02T16:16:42.318Z,2.62
2018-03-02T16:19:11.518Z,2.64
2018-03-02T16:21:40.808Z,2.66
2018-03-02T16:24:10.244Z,2.49
2018-03-02T16:26:39.441Z,2.58
2018-03-02T16:29:08.867Z,2.47
2018-03-02T16:31:38.058Z,2.74
2018-03-02T16:34:07.329Z,2.75
2018-03-02T16:36:36.349Z,2.54
2018-03-02T16:39:05.668Z,2.56
2018-03-02T16:41:34.770Z,2.67
2018-03-02T16:44:04.006Z,3.01
2018-03-02T16:46:33.201Z,2.80
2018-03-02T16:49:02.533Z,2.70
2018-03-02T16:51:32.579Z,2.78
2018-03-02T16:54:02.146Z,2.91
2018-03-02T16:56:31.225Z,2.90
2018-03-02T16:59:00.361Z,2.64
2018-03-02T17:01:29.438Z,2.75
2018-03-02T17:03:58.576Z,2.78
2018-03-02T17:06:27.930Z,3.29
2018-03-02T17:08:56.906Z,3.54
2018-03-02T17:11:26.229Z,3.46
2018-03-02T17:13:55.375Z,3.37
2018-03-02T17:16:24.492Z,3.15
2018-03-02T17:18:53.543Z,3.06
2018-03-02T17:21:22.705Z,3.00
2018-03-02T17:23:52.263Z,3.57
2018-03-02T17:26:21.515Z,3.25
2018-03-02T17:28:50.703Z,3.30
2018-03-02T17:31:20.307Z,3.31
2018-03-02T17:33:49.552Z,3.03
2018-03-02T17:36:18.563Z,3.11
2018-03-02T17:38:47.862Z,3.22
2018-03-02T17:41:16.854Z,3.46
2018-03-02T17:43:46.105Z,3.64
2018-03-02T17:46:15.259Z,3.34
2018-03-02T17:48:44.317Z,3.19
2018-03-02T17:51:13.555Z,2.94
2018-03-02T17:53:42.518Z,2.98
2018-03-02T17:56:12.043Z,2.97
2018-03-02T17:58:42.239Z,3.08
2018-03-02T18:01:11.509Z,3.12
2018-03-02T18:03:40.747Z,2.94
2018-03-02T18:06:10.046Z,2.87
2018-03-02T18:08:39.075Z,2.93
2018-03-02T18:11:08.254Z,3.10
2018-03-02T18:13:37.249Z,3.34
2018-03-02T18:16:06.725Z,3.61
2018-03-02T18:18:36.111Z,3.30
2018-03-02T18:21:05.425Z,3.39
2018-03-02T18:23:34.453Z,3.12
2018-03-02T18:26:03.401Z,3.07
2018-03-02T18:28:32.469Z,3.17
2018-03-02T18:31:01.863Z,3.37
2018-03-02T18:33:31.025Z,3.65
2018-03-02T18:36:00.361Z,3.52
2018-03-02T18:38:29.526Z,3.70
2018-03-02T18:40:58.944Z,3.29
2018-03-02T18:43:28.197Z,3.22
2018-03-02T18:45:57.173Z,3.15
2018-03-02T18:48:26.427Z,3.19
2018-03-02T18:50:56.039Z,3.21
2018-03-02T18:53:25.322Z,3.13
2018-03-02T18:55:54.528Z,3.20
2018-03-02T18:58:23.718Z,3.33
2018-03-02T19:00:52.955Z,3.31
2018-03-02T19:03:22.043Z,3.15
2018-03-02T19:05:51.069Z,3.36
2018-03-02T19:08:20.256Z,3.46
2018-03-02T19:10:49.486Z,3.36
2018-03-02T19:13:18.628Z,3.32
2018-03-02T19:15:47.917Z,3.43
2018-03-02T19:18:16.933Z,3.33
2018-03-02T19:20:46.057Z,3.12
2018-03-02T19:23:15.482Z,3.03
2018-03-02T19:25:44.516Z,3.04
2018-03-02T19:28:13.645Z,3.10
2018-03-02T19:30:43.028Z,2.92
2018-03-02T19:33:12.398Z,3.01
2018-03-02T19:35:41.911Z,3.05
2018-03-02T19:38:11.398Z,3.22
2018-03-02T19:40:40.687Z,3.17
2018-03-02T19:43:10.185Z,3.23
2018-03-02T19:45:39.641Z,3.15
2018-03-02T19:48:08.991Z,3.10
2018-03-02T19:50:38.304Z,3.07
2018-03-02T19:53:08.185Z,3.42
2018-03-02T19:55:37.586Z,3.29
2018-03-02T19:58:06.759Z,3.15
2018-03-02T20:00:35.946Z,3.04
2018-03-02T20:03:05.439Z,3.06
2018-03-02T20:05:34.877Z,2.99
2018-03-02T20:08:04.093Z,3.01
2018-03-02T20:10:33.201Z,2.95
2018-03-02T20:13:02.509Z,2.92
2018-03-02T20:15:31.796Z,2.88
2018-03-02T20:18:01.354Z,2.87
2018-03-02T20:20:30.671Z,2.84
2018-03-02T20:23:00.367Z,2.90
2018-03-02T20:25:29.358Z,2.89
2018-03-02T20:27:58.706Z,2.85
2018-03-02T20:30:28.249Z,2.85
2018-03-02T20:32:57.350Z,2.83
2018-03-02T20:35:26.749Z,2.83
2018-03-02T20:37:55.875Z,3.07
2018-03-02T20:40:25.013Z,2.80
2018-03-02T20:42:54.293Z,2.73
2018-03-02T20:45:23.425Z,2.79
2018-03-02T20:47:52.838Z,2.74
2018-03-02T20:50:22.311Z,2.66
2018-03-02T20:52:51.587Z,2.60
2018-03-02T20:55:20.741Z,2.66
2018-03-02T20:57:49.930Z,2.69
2018-03-02T21:00:19.138Z,2.71
2018-03-02T21:02:48.559Z,2.64
2018-03-02T21:05:18.009Z,2.66
2018-03-02T21:07:47.041Z,2.60
2018-03-02T21:10:16.310Z,2.57
2018-03-02T21:12:45.812Z,2.53
2018-03-02T21:15:14.873Z,2.52
2018-03-02T21:17:44.629Z,2.55
2018-03-02T21:20:13.745Z,2.54
2018-03-02T21:22:43.617Z,2.55
2018-03-02T21:25:12.917Z,2.56
2018-03-02T21:27:42.017Z,2.56
2018-03-02T21:30:11.257Z,2.53
2018-03-02T21:32:40.568Z,2.54
2018-03-02T21:35:09.923Z,2.57
2018-03-02T21:37:39.297Z,2.59
2018-03-02T21:40:13.519Z,2.62
2018-03-02T21:42:42.893Z,2.63
2018-03-02T21:45:12.113Z,2.72
2018-03-02T21:47:41.327Z,2.79
2018-03-02T21:50:10.593Z,2.84
2018-03-02T21:52:39.811Z,2.73
2018-03-02T21:55:08.995Z,2.61
2018-03-02T21:57:38.240Z,2.65
2018-03-02T22:00:17.939Z,2.63
2018-03-02T22:02:52.485Z,2.60
2018-03-02T22:05:21.413Z,2.62
2018-03-02T22:07:50.531Z,2.67
2018-03-02T22:10:19.781Z,2.69
2018-03-02T22:12:49.062Z,2.59
2018-03-02T22:15:18.270Z,2.48
2018-03-02T22:17:47.417Z,2.49
2018-03-02T22:20:16.949Z,2.61
2018-03-02T22:22:46.169Z,2.65
2018-03-02T22:25:15.435Z,2.65
2018-03-02T22:27:44.648Z,2.50
2018-03-02T22:30:13.838Z,2.56
2018-03-02T22:32:43.046Z,2.69
2018-03-02T22:35:12.276Z,3.05
2018-03-02T22:37:41.541Z,3.12
2018-03-02T22:40:10.917Z,3.09
2018-03-02T22:42:40.021Z,2.71
2018-03-02T22:45:09.437Z,2.65
2018-03-02T22:47:38.573Z,2.59
2018-03-02T22:50:08.072Z,2.68
2018-03-02T22:52:37.425Z,2.83
2018-03-02T22:55:07.035Z,2.76
2018-03-02T22:57:36.367Z,2.70
2018-03-02T23:00:05.786Z,2.60
2018-03-02T23:02:35.073Z,2.54
2018-03-02T23:05:04.347Z,2.59
2018-03-02T23:07:33.651Z,2.67
2018-03-02T23:10:02.769Z,2.73
2018-03-02T23:12:32.313Z,2.89
2018-03-02T23:15:01.692Z,2.82
2018-03-02T23:17:30.849Z,2.65
2018-03-02T23:20:00.018Z,2.65
2018-03-02T23:22:29.377Z,2.63
2018-03-02T23:24:58.637Z,2.70
2018-03-02T23:27:27.989Z,2.71
2018-03-02T23:29:57.073Z,2.61
2018-03-02T23:32:26.407Z,2.57
2018-03-02T23:34:55.625Z,2.76
2018-03-02T23:37:24.782Z,2.75
2018-03-02T23:39:53.965Z,2.73
2018-03-02T23:42:23.065Z,2.76
2018-03-02T23:44:52.385Z,2.66
2018-03-02T23:47:21.929Z,2.66
2018-03-02T23:49:51.052Z,2.76
2018-03-02T23:52:20.633Z,2.84
2018-03-02T23:54:50.037Z,3.04
2018-03-02T23:57:19.367Z,2.84
2018-03-02T23:59:48.745Z,2.81
